Ebetsu, Japan
Current Conditions -  °F | °C
As of 1:15 AM on Friday 28 Nov 2014 (Local Time) from RJCC Reporting Station
Moderate Fog Moderate Fog  
Wind Chill: 22°   Ceiling: Unl
Heat Index: 28°   Visibility: 0.5mi
Dew Point: 28°   Wind: 6mph
Humidity: 100%   Direction: 350°N
Pressure: 30.18"   Gusts: NA
Location:  43.12°N, 141.55°E
Report Text: RJCC 271615Z 35005KT 0800 R19R/0400V0600U R01R/0250V0700U FZFG SCT001 M02/M02 Q1022 RMK 4ST001 A3021
Loading
Personal Weather Stations






























Interactive Weather Map New forecast layout! Learn more

10-Day Weather Forecast

Advertisements
Track Severe Weather on mobile